createdAt,value
2023-03-13T00:01:29.149Z,99845.86
2023-03-13T00:03:22.397Z,99841.48
2023-03-13T00:05:15.475Z,99840.39
2023-03-13T00:07:08.600Z,99838.52
2023-03-13T00:09:03.977Z,99839.73
2023-03-13T00:10:57.054Z,99839.86
2023-03-13T00:12:50.109Z,99839.27
2023-03-13T00:14:43.154Z,99841.16
2023-03-13T00:16:37.803Z,99842.72
2023-03-13T00:18:31.312Z,99838.42
2023-03-13T00:20:24.356Z,99838.52
2023-03-13T00:22:17.606Z,99845.51
2023-03-13T00:24:12.496Z,99845.32
2023-03-13T00:26:08.522Z,99845.51
2023-03-13T00:28:01.573Z,99843.06
2023-03-13T00:29:54.621Z,99842.33
2023-03-13T00:31:47.720Z,99844.88
2023-03-13T00:33:45.288Z,99837.02
2023-03-13T00:35:38.332Z,99837.95
2023-03-13T00:37:32.457Z,99839.10
2023-03-13T00:39:25.505Z,99838.70
2023-03-13T00:41:25.827Z,99837.61
2023-03-13T00:43:19.186Z,99831.17
2023-03-13T00:45:12.239Z,99825.32
2023-03-13T00:47:07.237Z,99817.41
2023-03-13T00:49:00.296Z,99816.11
2023-03-13T00:50:53.537Z,99817.55
2023-03-13T00:52:46.594Z,99814.99
2023-03-13T00:54:39.722Z,99808.04
2023-03-13T00:56:32.892Z,99799.27
2023-03-13T00:58:28.054Z,99795.93
2023-03-13T01:00:21.654Z,99799.48
2023-03-13T01:02:14.990Z,99796.65
2023-03-13T01:04:11.575Z,99802.16
2023-03-13T01:06:06.846Z,99803.52
2023-03-13T01:07:59.800Z,99806.80
2023-03-13T01:09:52.836Z,99811.44
2023-03-13T01:11:46.607Z,99806.45
2023-03-13T01:13:40.500Z,99807.59
2023-03-13T01:15:36.546Z,99804.82
2023-03-13T01:17:30.796Z,99810.17
2023-03-13T01:19:23.851Z,99809.27
2023-03-13T01:21:19.912Z,99810.90
2023-03-13T01:23:13.423Z,99809.39
2023-03-13T01:25:07.984Z,99804.23
2023-03-13T01:27:00.970Z,99810.23
2023-03-13T01:28:55.088Z,99807.92
2023-03-13T01:30:48.436Z,99801.98
2023-03-13T01:32:41.551Z,99802.01
2023-03-13T01:34:35.107Z,99802.49
2023-03-13T01:36:29.192Z,99801.92
2023-03-13T01:38:22.156Z,99801.35
2023-03-13T01:40:16.109Z,99793.05
2023-03-13T01:42:09.155Z,99791.02
2023-03-13T01:44:02.202Z,99788.55
2023-03-13T01:46:16.339Z,99792.52
2023-03-13T01:48:37.407Z,99783.87
2023-03-13T01:50:30.611Z,99784.18
2023-03-13T01:52:39.025Z,99788.11
2023-03-13T01:54:47.950Z,99795.56
2023-03-13T01:56:48.984Z,99791.49
2023-03-13T01:58:42.343Z,99789.71
2023-03-13T02:00:37.210Z,99782.44
2023-03-13T02:02:36.792Z,99779.01
2023-03-13T02:04:35.582Z,99780.15
2023-03-13T02:06:31.600Z,99779.64
2023-03-13T02:08:32.785Z,99781.18
2023-03-13T02:10:27.474Z,99777.34
2023-03-13T02:12:31.377Z,99775.73
2023-03-13T02:14:28.730Z,99779.70
2023-03-13T02:16:22.336Z,99781.77
2023-03-13T02:18:16.373Z,99783.40
2023-03-13T02:20:12.078Z,99783.23
2023-03-13T02:22:15.485Z,99778.80
2023-03-13T02:24:19.886Z,99780.98
2023-03-13T02:26:13.552Z,99787.61
2023-03-13T02:28:11.998Z,99791.05
2023-03-13T02:30:06.823Z,99783.17
2023-03-13T02:31:59.773Z,99781.67
2023-03-13T02:33:54.972Z,99779.96
2023-03-13T02:35:49.488Z,99773.58
2023-03-13T02:37:47.070Z,99774.97
2023-03-13T02:39:46.430Z,99771.30
2023-03-13T02:41:42.276Z,99765.90
2023-03-13T02:43:37.430Z,99764.40
2023-03-13T02:45:30.887Z,99762.08
2023-03-13T02:47:25.587Z,99763.61
2023-03-13T02:49:24.056Z,99768.39
2023-03-13T02:51:23.580Z,99769.01
2023-03-13T02:53:16.610Z,99764.71
2023-03-13T02:55:17.936Z,99767.53
2023-03-13T02:57:11.521Z,99770.83
2023-03-13T02:59:07.039Z,99773.77
2023-03-13T03:01:07.832Z,99776.42
2023-03-13T03:03:02.324Z,99775.69
2023-03-13T03:04:55.414Z,99776.95
2023-03-13T03:06:49.266Z,99773.83
2023-03-13T03:08:43.975Z,99771.17
2023-03-13T03:10:38.027Z,99772.71
2023-03-13T03:12:31.492Z,99775.42
2023-03-13T03:14:24.643Z,99776.11
2023-03-13T03:16:21.317Z,99775.08
2023-03-13T03:18:14.328Z,99775.48
2023-03-13T03:20:12.257Z,99778.25
2023-03-13T03:22:08.104Z,99778.27
2023-03-13T03:24:01.375Z,99774.44
2023-03-13T03:25:54.516Z,99775.11
2023-03-13T03:27:47.663Z,99775.86
2023-03-13T03:29:41.123Z,99773.34
2023-03-13T03:31:35.031Z,99763.49
2023-03-13T03:33:28.149Z,99756.75
2023-03-13T03:35:21.501Z,99759.83
2023-03-13T03:37:14.461Z,99757.34
2023-03-13T03:39:07.501Z,99757.80
2023-03-13T03:41:01.675Z,99752.48
2023-03-13T03:42:55.240Z,99748.64
2023-03-13T03:44:48.291Z,99748.43
2023-03-13T03:46:41.633Z,99750.19
2023-03-13T03:48:34.908Z,99748.23
2023-03-13T03:50:28.371Z,99744.59
2023-03-13T03:52:24.384Z,99747.55
2023-03-13T03:54:17.638Z,99743.35
2023-03-13T03:56:10.610Z,99743.73
2023-03-13T03:58:07.838Z,99746.30
2023-03-13T04:00:22.295Z,99745.44
2023-03-13T04:02:17.842Z,99739.02
2023-03-13T04:04:11.568Z,99740.05
2023-03-13T04:06:07.295Z,99736.09
2023-03-13T04:08:00.335Z,99732.27
2023-03-13T04:09:53.282Z,99733.48
2023-03-13T04:11:52.067Z,99725.19
2023-03-13T04:13:45.116Z,99722.98
2023-03-13T04:15:39.871Z,99723.65
2023-03-13T04:17:35.011Z,99719.96
2023-03-13T04:19:28.160Z,99715.91
2023-03-13T04:21:21.621Z,99718.40
2023-03-13T04:23:18.770Z,99711.29
2023-03-13T04:25:12.023Z,99710.55
2023-03-13T04:27:07.177Z,99707.38
2023-03-13T04:29:00.683Z,99703.16
2023-03-13T04:31:20.013Z,99699.16
2023-03-13T04:33:44.229Z,99695.30
2023-03-13T04:35:55.764Z,99689.98
2023-03-13T04:38:07.712Z,99688.75
2023-03-13T04:40:24.006Z,99687.98
2023-03-13T04:42:37.228Z,99686.77
2023-03-13T04:44:56.604Z,99678.75
2023-03-13T04:47:13.096Z,99679.02
2023-03-13T04:49:26.114Z,99683.45
2023-03-13T04:51:38.627Z,99688.71
2023-03-13T04:53:50.411Z,99682.08
2023-03-13T04:55:53.806Z,99677.17
2023-03-13T04:58:07.132Z,99670.55
2023-03-13T05:00:08.383Z,99669.46
2023-03-13T05:02:14.124Z,99672.58
2023-03-13T05:04:27.450Z,99671.08
2023-03-13T05:06:41.806Z,99670.58
2023-03-13T05:08:53.815Z,99670.74
2023-03-13T05:11:01.097Z,99671.00
2023-03-13T05:13:15.120Z,99673.98
2023-03-13T05:15:23.013Z,99671.85
2023-03-13T05:17:28.230Z,99672.46
2023-03-13T05:19:39.325Z,99666.34
2023-03-13T05:21:54.905Z,99665.16
2023-03-13T05:24:06.697Z,99661.20
2023-03-13T05:26:00.464Z,99658.54
2023-03-13T05:27:59.572Z,99656.20
2023-03-13T05:30:12.065Z,99653.63
2023-03-13T05:32:31.309Z,99650.52
2023-03-13T05:34:32.447Z,99649.83
2023-03-13T05:36:38.836Z,99651.40
2023-03-13T05:38:43.214Z,99650.42
2023-03-13T05:40:43.240Z,99653.74
2023-03-13T05:42:59.803Z,99652.56
2023-03-13T05:45:12.372Z,99648.02
2023-03-13T05:47:18.637Z,99648.54
2023-03-13T05:49:25.814Z,99648.13
2023-03-13T05:51:31.919Z,99646.08
2023-03-13T05:53:41.408Z,99638.69
2023-03-13T05:55:52.104Z,99638.44
2023-03-13T05:58:11.231Z,99633.09
2023-03-13T06:00:19.331Z,99632.23
2023-03-13T06:02:24.462Z,99631.21
2023-03-13T06:04:17.638Z,99628.85
2023-03-13T06:06:11.999Z,99622.45
2023-03-13T06:08:10.579Z,99624.67
2023-03-13T06:10:05.058Z,99620.56
2023-03-13T06:11:58.724Z,99615.16
2023-03-13T06:13:53.247Z,99613.30
2023-03-13T06:15:54.139Z,99609.94
2023-03-13T06:18:06.138Z,99609.98
2023-03-13T06:19:59.189Z,99604.05
2023-03-13T06:21:52.662Z,99603.00
2023-03-13T06:23:45.678Z,99605.06
2023-03-13T06:25:39.054Z,99598.45
2023-03-13T06:27:31.948Z,99601.83
2023-03-13T06:29:24.930Z,99598.11
2023-03-13T06:31:17.887Z,99595.27
2023-03-13T06:33:11.328Z,99593.31
2023-03-13T06:35:05.838Z,99590.02
2023-03-13T06:37:00.641Z,99588.20
2023-03-13T06:38:53.688Z,99588.89
2023-03-13T06:40:47.974Z,99586.89
2023-03-13T06:42:41.027Z,99583.02
2023-03-13T06:44:34.070Z,99580.38
2023-03-13T06:46:27.375Z,99579.59
2023-03-13T06:48:23.244Z,99569.23
2023-03-13T06:50:17.029Z,99571.48
2023-03-13T06:52:10.061Z,99571.09
2023-03-13T06:54:03.818Z,99569.00
2023-03-13T06:56:01.192Z,99562.35
2023-03-13T06:57:54.348Z,99563.75
2023-03-13T06:59:47.386Z,99562.16
2023-03-13T07:01:40.432Z,99562.37
2023-03-13T07:03:34.049Z,99560.26
2023-03-13T07:05:27.254Z,99559.35
2023-03-13T07:07:31.174Z,99557.80
2023-03-13T07:09:24.731Z,99554.16
2023-03-13T07:11:17.796Z,99549.16
2023-03-13T07:13:12.315Z,99545.89
2023-03-13T07:15:07.423Z,99542.38
2023-03-13T07:17:00.685Z,99537.40
2023-03-13T07:18:53.969Z,99537.30
2023-03-13T07:20:54.738Z,99536.84
2023-03-13T07:22:53.470Z,99531.11
2023-03-13T07:24:46.898Z,99523.73
2023-03-13T07:26:42.705Z,99522.69
2023-03-13T07:28:43.200Z,99524.39
2023-03-13T07:30:36.680Z,99522.61
2023-03-13T07:32:33.496Z,99521.31
2023-03-13T07:34:26.746Z,99519.50
2023-03-13T07:36:19.945Z,99519.77
2023-03-13T07:38:12.946Z,99516.70
2023-03-13T07:40:06.711Z,99511.41
2023-03-13T07:41:59.710Z,99515.63
2023-03-13T07:43:53.230Z,99511.65
2023-03-13T07:45:54.529Z,99510.27
2023-03-13T07:47:47.728Z,99504.46
2023-03-13T07:49:44.253Z,99504.83
2023-03-13T07:51:43.819Z,99502.94
2023-03-13T07:53:37.573Z,99501.74
2023-03-13T07:55:30.780Z,99496.80
2023-03-13T07:57:23.832Z,99493.33
2023-03-13T07:59:16.823Z,99494.48
2023-03-13T08:01:12.808Z,99489.83
2023-03-13T08:03:07.517Z,99485.49
2023-03-13T08:05:00.943Z,99475.54
2023-03-13T08:06:54.919Z,99471.55
2023-03-13T08:08:48.279Z,99468.60
2023-03-13T08:10:41.322Z,99470.09
2023-03-13T08:12:34.382Z,99464.63
2023-03-13T08:14:27.836Z,99463.71
2023-03-13T08:16:34.510Z,99462.02
2023-03-13T08:18:35.138Z,99459.15
2023-03-13T08:20:28.181Z,99457.39
2023-03-13T08:22:21.456Z,99455.69
2023-03-13T08:24:14.485Z,99454.24
2023-03-13T08:26:16.856Z,99453.46
2023-03-13T08:28:11.240Z,99445.92
2023-03-13T08:30:05.382Z,99438.42
2023-03-13T08:31:58.670Z,99432.59
2023-03-13T08:33:52.240Z,99431.95
2023-03-13T08:35:45.844Z,99425.63
2023-03-13T08:37:38.945Z,99417.23
2023-03-13T08:39:31.865Z,99414.45
2023-03-13T08:41:27.094Z,99410.70
2023-03-13T08:43:20.142Z,99404.15
2023-03-13T08:45:13.093Z,99404.48
2023-03-13T08:47:06.963Z,99400.60
2023-03-13T08:49:00.022Z,99398.85
2023-03-13T08:51:08.383Z,99400.08
2023-03-13T08:53:02.921Z,99393.17
2023-03-13T08:54:55.966Z,99385.65
2023-03-13T08:56:49.121Z,99376.23
2023-03-13T08:58:42.985Z,99374.16
2023-03-13T09:00:36.037Z,99372.94
2023-03-13T09:02:28.999Z,99375.77
2023-03-13T09:04:22.034Z,99374.92
2023-03-13T09:06:15.239Z,99376.68
2023-03-13T09:08:08.311Z,99375.27
2023-03-13T09:10:01.291Z,99374.36
2023-03-13T09:11:54.342Z,99375.64
2023-03-13T09:13:49.459Z,99368.49
2023-03-13T09:15:42.562Z,99367.95
2023-03-13T09:17:35.747Z,99360.56
2023-03-13T09:19:28.797Z,99353.88
2023-03-13T09:21:24.120Z,99349.61
2023-03-13T09:23:17.665Z,99344.00
2023-03-13T09:25:11.224Z,99339.91
2023-03-13T09:27:04.479Z,99331.55
2023-03-13T09:28:57.836Z,99326.08
2023-03-13T09:30:51.124Z,99320.89
2023-03-13T09:32:44.269Z,99313.17
2023-03-13T09:34:37.299Z,99319.62
2023-03-13T09:36:30.450Z,99311.39
2023-03-13T09:38:23.392Z,99312.17
2023-03-13T09:40:21.263Z,99308.80
2023-03-13T09:42:21.029Z,99299.33
2023-03-13T09:44:27.135Z,99299.16
2023-03-13T09:46:35.511Z,99294.13
2023-03-13T09:48:37.902Z,99290.36
2023-03-13T09:50:36.946Z,99287.45
2023-03-13T09:52:44.086Z,99290.98
2023-03-13T09:54:47.262Z,99279.23
2023-03-13T09:56:55.464Z,99282.42
2023-03-13T09:58:54.992Z,99279.98
2023-03-13T10:00:54.468Z,99277.23
2023-03-13T10:03:00.628Z,99276.90
2023-03-13T10:05:05.278Z,99277.87
2023-03-13T10:07:00.677Z,99285.31
2023-03-13T10:08:54.010Z,99281.41
2023-03-13T10:10:57.741Z,99283.45
2023-03-13T10:12:56.292Z,99276.80
2023-03-13T10:15:00.955Z,99266.05
2023-03-13T10:17:05.432Z,99264.30
2023-03-13T10:19:02.174Z,99255.27
2023-03-13T10:21:03.776Z,99253.27
2023-03-13T10:23:21.550Z,99248.30
2023-03-13T10:25:35.012Z,99251.15
2023-03-13T10:27:28.635Z,99246.84
2023-03-13T10:29:24.694Z,99245.63
2023-03-13T10:31:32.410Z,99247.29
2023-03-13T10:33:28.595Z,99245.24
2023-03-13T10:35:25.532Z,99241.37
2023-03-13T10:37:27.998Z,99243.22
2023-03-13T10:39:26.591Z,99242.41
2023-03-13T10:41:29.361Z,99238.73
2023-03-13T10:43:22.714Z,99230.46
2023-03-13T10:45:19.963Z,99229.90
2023-03-13T10:47:14.869Z,99228.55
2023-03-13T10:49:16.283Z,99230.41
2023-03-13T10:51:21.744Z,99229.45
2023-03-13T10:53:29.450Z,99227.39
2023-03-13T10:55:24.706Z,99227.73
2023-03-13T10:57:31.230Z,99219.66
2023-03-13T10:59:26.687Z,99213.30
2023-03-13T11:01:33.787Z,99215.98
2023-03-13T11:03:35.213Z,99212.89
2023-03-13T11:05:44.697Z,99207.48
2023-03-13T11:07:38.601Z,99199.36
2023-03-13T11:09:33.419Z,99200.85
2023-03-13T11:11:31.025Z,99198.83
2023-03-13T11:13:42.998Z,99191.10
2023-03-13T11:15:46.410Z,99196.11
2023-03-13T11:17:41.641Z,99198.48
2023-03-13T11:19:48.767Z,99199.04
2023-03-13T11:22:09.090Z,99193.02
2023-03-13T11:24:10.612Z,99186.94
2023-03-13T11:26:12.004Z,99181.77
2023-03-13T11:28:19.672Z,99180.52
2023-03-13T11:30:24.681Z,99179.95
2023-03-13T11:32:24.119Z,99174.36
2023-03-13T11:34:26.638Z,99176.38
2023-03-13T11:36:27.676Z,99174.94
2023-03-13T11:38:42.960Z,99175.42
2023-03-13T11:40:53.111Z,99171.16
2023-03-13T11:43:24.005Z,99172.04
2023-03-13T11:45:39.772Z,99166.80
2023-03-13T11:47:38.517Z,99170.95
2023-03-13T11:49:31.468Z,99163.23
2023-03-13T11:51:33.421Z,99167.36
2023-03-13T11:53:35.967Z,99163.88
2023-03-13T11:55:54.554Z,99159.52
2023-03-13T11:57:56.918Z,99155.41
2023-03-13T12:00:19.044Z,99155.87
2023-03-13T12:02:23.634Z,99153.66
2023-03-13T12:04:26.342Z,99156.15
2023-03-13T12:06:32.155Z,99157.54
2023-03-13T12:08:41.628Z,99153.15
2023-03-13T12:10:44.183Z,99148.19
2023-03-13T12:12:55.692Z,99146.55
2023-03-13T12:14:58.937Z,99144.90
2023-03-13T12:17:03.188Z,99141.34
2023-03-13T12:18:57.468Z,99141.36
2023-03-13T12:21:27.904Z,99132.27
2023-03-13T12:23:28.896Z,99132.44
2023-03-13T12:25:25.541Z,99129.48
2023-03-13T12:27:26.301Z,99125.02
2023-03-13T12:29:24.927Z,99123.27
2023-03-13T12:31:27.657Z,99120.69
2023-03-13T12:33:31.068Z,99125.18
2023-03-13T12:35:30.498Z,99116.19
2023-03-13T12:37:34.472Z,99117.48
2023-03-13T12:39:37.852Z,99112.05
2023-03-13T12:41:43.805Z,99113.67
2023-03-13T12:43:40.107Z,99110.23
2023-03-13T12:45:36.636Z,99104.02
2023-03-13T12:47:37.607Z,99101.92
2023-03-13T12:49:52.787Z,99100.20
2023-03-13T12:51:55.143Z,99096.80
2023-03-13T12:54:14.328Z,99097.09
2023-03-13T12:56:16.673Z,99089.33
2023-03-13T12:58:26.731Z,99087.70
2023-03-13T13:00:28.480Z,99085.34
2023-03-13T13:02:27.927Z,99090.30
2023-03-13T13:04:24.913Z,99082.01
2023-03-13T13:06:19.197Z,99074.70
2023-03-13T13:08:25.800Z,99065.85
2023-03-13T13:10:23.051Z,99061.86
2023-03-13T13:12:16.682Z,99051.65
2023-03-13T13:14:19.048Z,99052.11
2023-03-13T13:16:23.638Z,99047.16
2023-03-13T13:18:27.620Z,99047.88
2023-03-13T13:20:30.556Z,99044.32
2023-03-13T13:22:38.877Z,99039.90
2023-03-13T13:24:49.632Z,99034.85
2023-03-13T13:26:48.797Z,99038.92
2023-03-13T13:28:44.093Z,99034.13
2023-03-13T13:30:40.704Z,99029.55
2023-03-13T13:32:43.502Z,99023.98
2023-03-13T13:34:38.475Z,99027.99
2023-03-13T13:36:42.175Z,99030.06
2023-03-13T13:38:38.227Z,99026.38
2023-03-13T13:40:32.581Z,99022.82
2023-03-13T13:42:33.014Z,99028.98
2023-03-13T13:44:30.267Z,99031.66
2023-03-13T13:46:30.714Z,99024.95
2023-03-13T13:48:32.891Z,99014.86
2023-03-13T13:50:32.031Z,99019.32
2023-03-13T13:52:39.742Z,99017.48
2023-03-13T13:54:45.858Z,99021.91
2023-03-13T13:56:49.825Z,99018.71
2023-03-13T13:58:46.028Z,99004.29
2023-03-13T14:00:53.432Z,99007.68
2023-03-13T14:02:56.707Z,99012.42
2023-03-13T14:04:57.383Z,99023.18
2023-03-13T14:06:53.854Z,99023.59
2023-03-13T14:08:53.846Z,99024.06
2023-03-13T14:11:22.085Z,99016.90
2023-03-13T14:13:22.187Z,99020.32
2023-03-13T14:15:22.533Z,99020.90
2023-03-13T14:17:29.281Z,99017.11
2023-03-13T14:19:30.322Z,99014.84
2023-03-13T14:21:26.566Z,99010.64
2023-03-13T14:23:32.622Z,99002.32
2023-03-13T14:25:28.368Z,99003.61
2023-03-13T14:27:22.152Z,98996.79
2023-03-13T14:29:26.039Z,98994.59
2023-03-13T14:31:31.272Z,98998.11
2023-03-13T14:33:28.854Z,98987.31
2023-03-13T14:35:24.684Z,98988.77
2023-03-13T14:37:45.107Z,98986.45
2023-03-13T14:39:49.157Z,98987.04
2023-03-13T14:41:47.761Z,98983.11
2023-03-13T14:43:48.170Z,98980.75
2023-03-13T14:45:41.540Z,98982.16
2023-03-13T14:47:34.648Z,98977.20
2023-03-13T14:49:30.694Z,98980.30
2023-03-13T14:51:26.649Z,98981.73
2023-03-13T14:53:22.703Z,98975.79
2023-03-13T14:55:21.915Z,98975.64
2023-03-13T14:57:21.292Z,98976.60
2023-03-13T14:59:32.724Z,98970.65
2023-03-13T15:01:32.619Z,98976.65
2023-03-13T15:03:31.675Z,98977.81
2023-03-13T15:05:33.596Z,98979.27
2023-03-13T15:07:40.142Z,98978.42
2023-03-13T15:09:45.090Z,98985.86
2023-03-13T15:12:02.200Z,98986.38
2023-03-13T15:14:02.595Z,98982.51
2023-03-13T15:16:02.589Z,98977.86
2023-03-13T15:18:01.133Z,98979.33
2023-03-13T15:19:59.140Z,98985.91
2023-03-13T15:21:56.721Z,98985.65
2023-03-13T15:24:04.600Z,98980.85
2023-03-13T15:26:00.177Z,98982.73
2023-03-13T15:27:55.511Z,98979.64
2023-03-13T15:29:54.339Z,98974.50
2023-03-13T15:34:29.728Z,98978.93
2023-03-13T15:36:26.018Z,98977.40
2023-03-13T15:38:25.671Z,98972.20
2023-03-13T15:40:25.500Z,98968.61
2023-03-13T15:42:25.005Z,98969.14
2023-03-13T15:44:26.834Z,98968.73
2023-03-13T15:46:25.372Z,98968.10
2023-03-13T15:48:31.500Z,98958.40
2023-03-13T15:50:32.615Z,98957.85
2023-03-13T15:52:26.603Z,98958.79
2023-03-13T15:54:23.506Z,98959.39
2023-03-13T15:56:26.040Z,98955.00
2023-03-13T15:58:25.471Z,98957.29
2023-03-13T16:00:27.161Z,98954.58
2023-03-13T16:02:24.582Z,98954.23
2023-03-13T16:04:19.235Z,98959.09
2023-03-13T16:06:21.442Z,98957.19
2023-03-13T16:08:34.743Z,98953.92
2023-03-13T16:10:33.849Z,98947.92
2023-03-13T16:12:30.394Z,98943.67
2023-03-13T16:14:27.220Z,98938.78
2023-03-13T16:16:26.006Z,98936.71
2023-03-13T16:18:22.117Z,98937.36
2023-03-13T16:20:18.848Z,98931.32
2023-03-13T16:22:12.942Z,98924.87
2023-03-13T16:24:06.643Z,98927.39
2023-03-13T16:26:03.635Z,98927.05
2023-03-13T16:28:00.788Z,98926.40
2023-03-13T16:29:56.193Z,98933.23
2023-03-13T16:31:54.214Z,98937.00
2023-03-13T16:33:53.877Z,98931.56
2023-03-13T16:36:01.935Z,98939.28
2023-03-13T16:38:24.207Z,98938.76
2023-03-13T16:40:25.738Z,98941.77
2023-03-13T16:42:22.353Z,98944.58
2023-03-13T16:44:21.468Z,98940.94
2023-03-13T16:46:23.696Z,98935.27
2023-03-13T16:48:21.678Z,98938.88
2023-03-13T16:50:21.027Z,98939.88
2023-03-13T16:52:19.505Z,98945.89
2023-03-13T16:54:20.435Z,98942.08
2023-03-13T16:56:57.268Z,98942.07
2023-03-13T16:58:57.682Z,98947.30
2023-03-13T17:01:05.304Z,98948.84
2023-03-13T17:03:02.730Z,98942.15
2023-03-13T17:04:57.715Z,98937.67
2023-03-13T17:06:53.778Z,98937.79
2023-03-13T17:08:48.468Z,98938.13
2023-03-13T17:10:42.139Z,98934.25
2023-03-13T17:12:36.922Z,98935.49
2023-03-13T17:14:33.085Z,98932.28
2023-03-13T17:16:41.476Z,98935.63
2023-03-13T17:18:38.756Z,98932.63
2023-03-13T17:20:31.907Z,98935.69
2023-03-13T17:22:26.652Z,98927.80
2023-03-13T17:24:21.113Z,98926.11
2023-03-13T17:26:44.772Z,98926.92
2023-03-13T17:28:41.630Z,98927.77
2023-03-13T17:30:39.101Z,98926.64
2023-03-13T17:32:33.654Z,98925.33
2023-03-13T17:34:34.329Z,98927.55
2023-03-13T17:36:35.494Z,98922.02
2023-03-13T17:38:34.596Z,98918.34
2023-03-13T17:40:30.094Z,98918.16
2023-03-13T17:42:23.042Z,98917.23
2023-03-13T17:44:16.396Z,98920.89
2023-03-13T17:46:18.143Z,98917.94
2023-03-13T17:48:13.563Z,98922.77
2023-03-13T17:50:20.337Z,98922.34
2023-03-13T17:52:16.046Z,98924.29
2023-03-13T17:54:09.713Z,98915.83
2023-03-13T17:56:02.865Z,98913.57
2023-03-13T17:57:56.015Z,98915.97
2023-03-13T17:59:50.335Z,98909.31
2023-03-13T18:01:45.303Z,98907.84
2023-03-13T18:03:38.545Z,98902.05
2023-03-13T18:05:38.090Z,98898.75
2023-03-13T18:07:50.153Z,98897.02
2023-03-13T18:09:48.625Z,98893.93
2023-03-13T18:11:47.753Z,98894.45
2023-03-13T18:13:41.485Z,98894.30
2023-03-13T18:15:35.292Z,98892.92
2023-03-13T18:17:29.841Z,98890.06
2023-03-13T18:19:46.265Z,98892.48
2023-03-13T18:21:40.358Z,98889.73
2023-03-13T18:23:40.802Z,98883.38
2023-03-13T18:25:36.212Z,98881.66
2023-03-13T18:27:30.172Z,98878.98
2023-03-13T18:29:29.775Z,98877.16
2023-03-13T18:31:24.068Z,98880.38
2023-03-13T18:33:18.981Z,98880.69
2023-03-13T18:35:16.514Z,98876.45
2023-03-13T18:37:23.323Z,98868.04
2023-03-13T18:39:18.931Z,98864.02
2023-03-13T18:41:12.289Z,98865.55
2023-03-13T18:43:05.337Z,98867.14
2023-03-13T18:44:58.907Z,98869.31
2023-03-13T18:46:53.281Z,98873.67
2023-03-13T18:48:46.947Z,98879.70
2023-03-13T18:50:40.762Z,98877.06
2023-03-13T18:52:34.586Z,98878.85
2023-03-13T18:54:27.543Z,98879.61
2023-03-13T18:56:21.914Z,98882.02
2023-03-13T18:58:16.624Z,98880.34
2023-03-13T19:00:23.565Z,98866.99
2023-03-13T19:02:18.516Z,98848.98
2023-03-13T19:04:11.626Z,98844.09
2023-03-13T19:06:33.465Z,98839.73
2023-03-13T19:08:28.064Z,98841.27
2023-03-13T19:10:25.128Z,98849.50
2023-03-13T19:12:18.552Z,98856.05
2023-03-13T19:14:12.712Z,98855.02
2023-03-13T19:16:19.322Z,98855.11
2023-03-13T19:18:12.661Z,98852.55
2023-03-13T19:20:06.590Z,98853.52
2023-03-13T19:22:02.014Z,98853.42
2023-03-13T19:23:56.709Z,98850.90
2023-03-13T19:25:50.077Z,98848.19
2023-03-13T19:27:45.377Z,98846.09
2023-03-13T19:29:41.414Z,98845.87
2023-03-13T19:31:34.844Z,98842.95
2023-03-13T19:33:38.438Z,98843.12
2023-03-13T19:35:34.253Z,98850.62
2023-03-13T19:37:28.847Z,98847.45
2023-03-13T19:39:25.983Z,98841.05
2023-03-13T19:41:20.962Z,98843.13
2023-03-13T19:43:16.874Z,98843.07
2023-03-13T19:45:12.735Z,98833.75
2023-03-13T19:47:06.608Z,98833.10
2023-03-13T19:49:02.421Z,98826.48
2023-03-13T19:50:55.431Z,98834.66
2023-03-13T19:52:49.081Z,98830.14
2023-03-13T19:54:42.794Z,98831.41
2023-03-13T19:56:36.797Z,98828.91
2023-03-13T19:58:30.186Z,98822.66
2023-03-13T20:00:28.029Z,98816.41
2023-03-13T20:02:21.972Z,98810.38
2023-03-13T20:04:15.624Z,98806.48
2023-03-13T20:06:21.681Z,98804.27
2023-03-13T20:08:14.634Z,98800.89
2023-03-13T20:10:10.241Z,98802.14
2023-03-13T20:12:03.602Z,98796.48
2023-03-13T20:13:57.161Z,98799.05
2023-03-13T20:15:50.246Z,98791.63
2023-03-13T20:17:43.261Z,98789.67
2023-03-13T20:19:36.321Z,98784.43
2023-03-13T20:21:36.257Z,98775.83
2023-03-13T20:23:31.738Z,98774.63
2023-03-13T20:25:25.318Z,98773.10
2023-03-13T20:27:21.135Z,98767.48
2023-03-13T20:29:16.681Z,98769.79
2023-03-13T20:31:11.142Z,98772.40
2023-03-13T20:33:04.504Z,98772.20
2023-03-13T20:34:57.719Z,98774.18
2023-03-13T20:36:56.459Z,98774.78
2023-03-13T20:38:52.700Z,98776.00
2023-03-13T20:40:53.171Z,98778.37
2023-03-13T20:42:46.309Z,98780.99
2023-03-13T20:44:40.025Z,98781.01
2023-03-13T20:46:33.644Z,98778.89
2023-03-13T20:48:29.973Z,98776.02
2023-03-13T20:50:24.260Z,98775.04
2023-03-13T20:52:20.258Z,98779.52
2023-03-13T20:54:13.413Z,98779.18
2023-03-13T20:56:08.055Z,98774.63
2023-03-13T20:58:03.523Z,98768.69
2023-03-13T20:59:58.051Z,98761.86
2023-03-13T21:01:52.099Z,98766.40
2023-03-13T21:03:47.785Z,98767.77
2023-03-13T21:05:44.639Z,98757.30
2023-03-13T21:07:37.775Z,98754.80
2023-03-13T21:09:32.559Z,98754.92
2023-03-13T21:11:25.616Z,98756.94
2023-03-13T21:13:18.678Z,98752.74
2023-03-13T21:15:12.631Z,98753.52
2023-03-13T21:17:06.129Z,98750.14
2023-03-13T21:19:09.893Z,98751.94
2023-03-13T21:21:09.503Z,98750.73
2023-03-13T21:23:02.959Z,98750.75
2023-03-13T21:25:00.825Z,98746.01
2023-03-13T21:26:55.196Z,98741.59
2023-03-13T21:28:49.076Z,98738.78
2023-03-13T21:30:42.127Z,98735.64
2023-03-13T21:32:39.525Z,98727.57
2023-03-13T21:34:32.524Z,98723.98
2023-03-13T21:36:25.787Z,98719.84
2023-03-13T21:38:19.079Z,98717.75
2023-03-13T21:40:13.487Z,98710.95
2023-03-13T21:44:32.540Z,98710.48
2023-03-13T21:46:39.332Z,98706.84
2023-03-13T21:48:43.447Z,98707.39
2023-03-13T21:50:36.439Z,98695.13
2023-03-13T21:52:34.358Z,98688.74
2023-03-13T21:54:29.878Z,98677.42
2023-03-13T21:56:22.965Z,98681.14
2023-03-13T22:01:12.453Z,98680.14
2023-03-13T22:03:05.605Z,98670.27
2023-03-13T22:04:58.640Z,98669.09
2023-03-13T22:06:51.692Z,98662.27
2023-03-13T22:08:45.271Z,98657.31
2023-03-13T22:10:38.823Z,98658.51
2023-03-13T22:12:31.750Z,98649.02
2023-03-13T22:14:25.851Z,98655.24
2023-03-13T22:16:21.013Z,98659.67
2023-03-13T22:18:14.959Z,98654.92
2023-03-13T22:20:09.226Z,98644.89
2023-03-13T22:22:02.173Z,98639.33
2023-03-13T22:23:55.112Z,98636.64
2023-03-13T22:25:48.304Z,98632.52
2023-03-13T22:27:41.322Z,98630.17
2023-03-13T22:29:34.374Z,98624.01
2023-03-13T22:31:27.434Z,98627.66
2023-03-13T22:33:20.411Z,98634.77
2023-03-13T22:35:13.604Z,98633.77
2023-03-13T22:37:06.642Z,98631.27
2023-03-13T22:38:59.694Z,98631.42
2023-03-13T22:41:01.447Z,98633.61
2023-03-13T22:42:54.508Z,98632.91
2023-03-13T22:44:47.430Z,98632.20
2023-03-13T22:46:40.495Z,98630.99
2023-03-13T22:48:33.979Z,98626.90
2023-03-13T22:50:28.137Z,98633.77
2023-03-13T22:52:22.719Z,98641.85
2023-03-13T22:54:15.771Z,98634.42
2023-03-13T22:56:10.373Z,98647.36
2023-03-13T22:58:05.509Z,98656.73
2023-03-13T23:00:05.361Z,98660.73
2023-03-13T23:02:00.660Z,98657.50
2023-03-13T23:03:54.424Z,98646.75
2023-03-13T23:05:49.116Z,98647.30
2023-03-13T23:07:43.232Z,98645.05
2023-03-13T23:09:40.112Z,98636.86
2023-03-13T23:11:35.121Z,98634.69
2023-03-13T23:13:31.305Z,98641.45
2023-03-13T23:15:26.536Z,98644.34
2023-03-13T23:17:23.476Z,98636.55
2023-03-13T23:19:17.306Z,98641.17